Latest Weather Observations for Broken Hill Airport

IDN60801

Issued at 7:32 am EST Friday 29 April 2016 (issued every 30 minutes, with the page automatically refreshed every 10 minutes)

About weather observations | Map of weather stations | Latest weather observations for NSW | Other Formats
Station Details ID: 047048 Name: BROKEN HILL AIRPORT AWS Lat: -32.00 Lon: 141.47 Height: 281.3 m
Data from the previous 72 hours. | See also: Recent months at Broken Hill Airport
Date/Time
EST
Temp
°C
App
Temp
°C
Dew
Point
Rel
Hum
%
Delta-T
°C
Wind Press
QNH
hPa
Press
MSL
hPa
Rain
since 9 am
mm
Dir
 
Spd
km/h
Gust
km/h
Spd
kts
Gust
kts
29/07:30am 18.2 17.9 16.4 89 1.1 NE 13 20 7 11 1015.2 1014.6 5.8
29/07:00am 18.2 16.1 16.2 88 1.2 NE 22 26 12 14 1014.5 1013.9 5.6
29/06:35am 18.5 16.6 15.7 84 1.7 NNE 20 30 11 16 1014.9 1014.3 5.6
29/06:30am 18.6 15.5 15.7 83 1.7 NNE 26 35 14 19 1014.8 1014.2 5.6
29/06:18am 18.6 14.1 15.3 81 2.0 N 33 54 18 29 1015.5 1014.8 4.4
29/06:03am 19.4 15.9 15.5 78 2.3 N 28 46 15 25 1014.8 1014.2 2.8
29/06:00am 18.9 15.7 15.4 80 2.1 NNE 26 33 14 18 1014.8 1014.2 2.8
29/05:30am 18.4 14.2 15.6 84 1.7 NNE 32 39 17 21 1014.0 1013.3 2.6
29/05:00am 18.8 16.4 15.5 81 2.0 NNE 22 28 12 15 1015.1 1014.5 1.4
29/04:30am 20.5 17.9 13.9 66 3.9 NNE 20 28 11 15 1014.9 1014.3 0.2
29/04:00am 20.9 19.0 14.1 65 4.0 N 17 24 9 13 1014.7 1014.1 0.2
29/03:30am 21.6 17.7 12.2 55 5.4 NNE 24 32 13 17 1014.3 1013.6 0.0
29/03:00am 21.6 16.2 9.5 46 6.6 NNE 28 37 15 20 1014.4 1013.8 0.0
29/02:30am 22.1 17.5 6.7 37 8.0 NNE 20 26 11 14 1015.0 1014.4 0.0
29/02:00am 20.8 16.6 4.0 33 8.2 NE 15 17 8 9 1015.0 1014.4 0.0
29/01:30am 21.6 17.3 3.3 30 8.9 NE 15 17 8 9 1015.5 1014.8 0.0
29/01:00am 20.8 16.3 2.1 29 8.8 NE 15 19 8 10 1015.7 1015.0 0.0
29/12:30am 21.0 16.1 2.3 29 8.8 NE 17 19 9 10 1015.8 1015.1 0.0
29/12:00am 20.8 16.4 2.6 30 8.6 NE 15 17 8 9 1016.2 1015.5 0.0
 
Date/Time
EST
Temp
°C
App
Temp
°C
Dew
Point
Rel
Hum
%
Delta-T
°C
Wind Press
QNH
hPa
Press
MSL
hPa
Rain
since 9 am
mm
Dir
 
Spd
km/h
Gust
km/h
Spd
kts
Gust
kts
28/11:30pm 20.0 15.5 2.4 31 8.3 NE 15 17 8 9 1016.7 1016.0 0.0
28/11:00pm 21.5 17.6 3.2 30 8.8 NE 13 15 7 8 1017.0 1016.3 0.0
28/10:30pm 20.1 16.0 2.0 30 8.5 NE 13 13 7 7 1017.3 1016.6 0.0
28/10:00pm 21.3 18.2 1.6 27 9.2 NNE 7 7 4 4 1017.4 1016.7 0.0
28/09:30pm 23.1 19.8 2.6 26 9.9 NE 9 11 5 6 1017.3 1016.6 0.0
28/09:00pm 22.8 19.1 2.3 26 9.8 NE 11 13 6 7 1016.8 1016.1 0.0
28/08:30pm 23.3 20.0 2.7 26 10.0 ENE 9 9 5 5 1016.7 1016.0 0.0
28/08:00pm 23.0 20.2 3.0 27 9.7 ENE 7 7 4 4 1016.8 1016.1 0.0
28/07:30pm 22.6 21.0 2.7 27 9.6 CALM 0 0 0 0 1016.8 1016.1 0.0
28/07:00pm 24.4 22.4 2.5 24 10.6 NW 2 7 1 4 1016.7 1016.0 0.0
28/06:30pm 25.1 22.4 2.5 23 11.0 NW 6 7 3 4 1016.6 1015.9 0.0
28/06:00pm 25.6 22.6 2.3 22 11.4 NW 7 9 4 5 1016.6 1015.9 0.0
28/05:30pm 26.7 22.9 1.9 20 12.1 NNW 11 15 6 8 1016.4 1015.7 0.0
28/05:00pm 27.6 23.8 1.9 19 12.6 NW 11 19 6 10 1016.3 1015.6 0.0
28/04:30pm 28.2 24.0 1.7 18 13.0 NNW 13 20 7 11 1016.3 1015.6 0.0
28/04:00pm 27.9 24.0 1.4 18 12.9 NNW 11 20 6 11 1016.4 1015.7 0.0
28/03:30pm 28.1 23.9 1.6 18 13.0 WNW 13 19 7 10 1016.4 1015.7 0.0
28/03:00pm 28.2 24.8 1.7 18 13.0 NNW 9 20 5 11 1016.6 1015.9 0.0
28/02:30pm 29.2 24.0 2.5 18 13.4 NW 19 32 10 17 1016.7 1016.0 0.0
28/02:00pm 28.4 23.5 1.8 18 13.1 N 17 26 9 14 1017.0 1016.3 0.0
28/01:30pm 28.2 22.8 2.4 19 12.9 N 20 30 11 16 1017.3 1016.6 0.0
28/01:00pm 27.8 22.8 3.5 21 12.3 NNW 19 30 10 16 1018.0 1017.4 0.0
28/12:30pm 27.8 23.0 2.8 20 12.5 N 17 24 9 13 1018.4 1017.8 0.0
28/12:00pm 26.4 21.8 3.6 23 11.4 N 17 26 9 14 1018.8 1018.2 0.0
28/11:30am 25.2 21.8 5.9 29 10.0 N 13 20 7 11 1019.3 1018.6 0.0
28/11:00am 24.7 21.0 6.4 31 9.6 N 15 19 8 10 1019.4 1018.7 0.0
28/10:30am 23.9 20.7 6.7 33 9.0 NNE 13 17 7 9 1019.5 1018.8 0.0
28/10:00am 22.7 19.2 5.6 33 8.7 N 13 19 7 10 1019.8 1019.1 0.0
28/09:30am 21.9 18.9 5.8 35 8.2 NNE 11 17 6 9 1019.8 1019.1 0.0
28/09:00am 19.9 16.3 5.2 38 7.3 NE 13 15 7 8 1019.6 1018.9 0.0
28/08:30am 19.3 15.7 5.0 39 7.0 NNE 13 17 7 9 1019.4 1018.7 0.0
28/08:00am 18.8 14.4 4.9 40 6.8 NE 17 20 9 11 1018.9 1018.3 0.0
28/07:30am 18.9 15.7 5.0 40 6.8 NNE 11 15 6 8 1018.7 1018.1 0.0
28/07:00am 18.4 14.6 5.9 44 6.2 NNE 15 17 8 9 1018.3 1017.7 0.0
28/06:30am 17.2 13.6 4.9 44 5.9 NNE 13 17 7 9 1018.2 1017.6 0.0
28/06:00am 16.7 13.3 4.1 43 6.0 NE 11 13 6 7 1018.0 1017.4 0.0
28/05:30am 17.3 14.0 4.6 43 6.1 NE 11 15 6 8 1017.9 1017.3 0.0
28/05:00am 16.6 14.0 3.3 41 6.2 SE 6 7 3 4 1017.8 1017.2 0.0
28/04:30am 19.1 15.6 1.1 30 8.2 NNW 9 15 5 8 1017.9 1017.3 0.0
28/04:00am 20.7 17.6 5.5 37 7.6 N 11 13 6 7 1017.8 1017.2 0.0
28/03:30am 19.7 16.6 5.4 39 7.1 NNE 11 13 6 7 1017.9 1017.3 0.0
28/03:00am 17.4 13.9 3.3 39 6.6 NNE 11 13 6 7 1018.0 1017.4 0.0
28/02:30am 17.9 14.3 3.0 37 7.0 NNE 11 13 6 7 1018.3 1017.7 0.0
28/02:00am 18.5 14.9 3.2 36 7.2 NNE 11 13 6 7 1018.3 1017.7 0.0
28/01:30am 18.2 14.2 2.9 36 7.2 NNE 13 15 7 8 1018.1 1017.5 0.0
28/01:00am 18.0 13.6 2.7 36 7.1 NE 15 17 8 9 1018.1 1017.5 0.0
28/12:30am 18.6 14.2 2.9 35 7.4 NNE 15 17 8 9 1018.2 1017.6 0.0
28/12:00am 19.0 14.9 2.4 33 7.7 NNE 13 15 7 8 1018.4 1017.8 0.0
 
Date/Time
EST
Temp
°C
App
Temp
°C
Dew
Point
Rel
Hum
%
Delta-T
°C
Wind Press
QNH
hPa
Press
MSL
hPa
Rain
since 9 am
mm
Dir
 
Spd
km/h
Gust
km/h
Spd
kts
Gust
kts
27/11:30pm 20.4 16.8 2.7 31 8.4 NNE 11 13 6 7 1018.2 1017.6 0.0
27/11:00pm 20.4 16.8 2.7 31 8.4 NNE 11 13 6 7 1018.4 1017.8 0.0
27/10:30pm 19.7 15.3 2.6 32 8.1 NNE 15 15 8 8 1018.4 1017.8 0.0
27/10:00pm 19.7 15.5 1.7 30 8.3 NNE 13 15 7 8 1018.4 1017.8 0.0
27/09:30pm 19.9 15.3 1.8 30 8.4 NE 15 19 8 10 1018.4 1017.8 0.0
27/09:00pm 21.1 16.9 1.9 28 9.0 NE 13 15 7 8 1018.6 1018.0 0.0
27/08:30pm 22.3 18.1 1.9 26 9.7 NNE 13 15 7 8 1018.6 1018.0 0.0
27/08:00pm 22.0 18.6 1.6 26 9.6 NNE 9 11 5 6 1018.4 1017.8 0.0
27/07:30pm 23.8 20.9 2.6 25 10.3 NNE 7 11 4 6 1018.3 1017.7 0.0
27/07:00pm 24.6 21.3 2.7 24 10.7 N 9 11 5 6 1018.1 1017.5 0.0
27/06:30pm 24.8 21.8 2.3 23 10.9 N 7 9 4 5 1017.9 1017.3 0.0
27/06:00pm 25.5 22.2 2.2 22 11.3 N 9 15 5 8 1017.7 1017.1 0.0
27/05:30pm 26.3 22.2 2.3 21 11.8 N 13 20 7 11 1017.6 1017.0 0.0
27/05:00pm 26.7 22.5 1.9 20 12.1 NNW 13 17 7 9 1017.5 1016.9 0.0
27/04:30pm 27.2 22.3 2.3 20 12.3 N 17 24 9 13 1017.5 1016.9 0.0
27/04:00pm 27.1 21.7 2.2 20 12.3 NNW 20 30 11 16 1017.5 1016.9 0.0
27/03:30pm 27.2 22.0 2.3 20 12.3 N 19 26 10 14 1017.4 1016.7 0.0
27/03:00pm 27.8 22.3 2.1 19 12.7 NNW 20 28 11 15 1017.4 1016.7 0.0
27/02:30pm 27.0 21.5 2.1 20 12.2 NNW 20 28 11 15 1017.5 1016.9 0.0
27/02:00pm 27.6 22.4 3.3 21 12.2 N 20 30 11 16 1017.6 1017.0 0.0
27/01:30pm 26.8 21.2 3.3 22 11.8 N 22 33 12 18 1018.0 1017.4 0.0
27/01:00pm 26.8 21.3 4.0 23 11.6 N 22 32 12 17 1018.4 1017.8 0.0
27/12:30pm 26.2 20.6 3.5 23 11.4 N 22 37 12 20 1018.9 1018.3 0.0
27/12:00pm 26.8 21.4 4.6 24 11.4 N 22 32 12 17 1019.4 1018.7 0.0
27/11:30am 26.3 20.6 4.7 25 11.1 N 24 33 13 18 1019.6 1018.9 0.0
27/11:00am 25.6 19.4 4.1 25 10.8 N 26 37 14 20 1019.9 1019.2 0.0
27/10:50am 25.7 19.1 4.2 25 10.9 N 28 46 15 25 1020.0 1019.3 0.0
27/10:30am 25.6 19.5 4.7 26 10.7 N 26 37 14 20 1020.3 1019.6 0.0
27/10:00am 24.8 19.1 5.1 28 10.0 NNE 24 35 13 19 1020.6 1020.0 0.0
27/09:30am 23.0 18.4 5.4 32 8.9 NNE 19 26 10 14 1020.8 1020.2 0.0
27/09:00am 21.1 16.2 5.1 35 8.0 NNE 20 24 11 13 1021.3 1020.7 0.0
27/08:30am 19.9 15.3 5.5 39 7.2 NNE 19 22 10 12 1021.4 1020.8 0.0
27/08:00am 16.3 12.6 6.2 51 5.0 NE 15 17 8 9 1021.3 1020.7 0.0
27/07:30am 14.1 10.6 5.5 56 4.1 NE 13 15 7 8 1021.1 1020.5 0.0
27/07:00am 13.5 9.6 5.2 57 3.9 NE 15 17 8 9 1020.8 1020.2 0.0
27/06:30am 13.9 9.9 4.8 54 4.3 NE 15 17 8 9 1020.6 1020.0 0.0
27/06:00am 15.3 11.1 5.5 52 4.7 NE 17 19 9 10 1020.7 1020.1 0.0
27/05:30am 15.5 11.7 5.7 52 4.8 NNE 15 19 8 10 1020.5 1019.8 0.0
27/05:00am 16.1 11.5 5.4 49 5.2 NNE 19 24 10 13 1020.1 1019.4 0.0
27/04:30am 17.1 12.5 5.7 47 5.6 NNE 19 24 10 13 1019.8 1019.1 0.0
27/04:00am 17.4 12.8 5.4 45 5.9 NNE 19 24 10 13 1019.7 1019.0 0.0
27/03:30am 17.8 13.2 5.7 45 6.0 NNE 19 24 10 13 1019.8 1019.1 0.0
27/03:00am 16.5 12.5 4.9 46 5.6 NNE 15 17 8 9 1020.1 1019.4 0.0
27/02:30am 16.8 12.4 4.5 44 5.9 NNE 17 20 9 11 1020.2 1019.5 0.0
27/02:00am 17.7 13.6 4.6 42 6.3 NNE 15 19 8 10 1020.6 1020.0 0.0
27/01:30am 17.8 13.7 4.4 41 6.4 NNE 15 17 8 9 1020.8 1020.2 0.0
27/01:00am 17.8 13.8 4.7 42 6.3 NNE 15 17 8 9 1021.0 1020.4 0.0
27/12:30am 17.2 13.4 3.8 41 6.3 NNE 13 15 7 8 1021.4 1020.8 0.0
27/12:00am 16.0 12.0 3.1 42 5.9 NNE 13 17 7 9 1021.5 1020.9 0.0
 
Date/Time
EST
Temp
°C
App
Temp
°C
Dew
Point
Rel
Hum
%
Delta-T
°C
Wind Press
QNH
hPa
Press
MSL
hPa
Rain
since 9 am
mm
Dir
 
Spd
km/h
Gust
km/h
Spd
kts
Gust
kts
26/11:30pm 15.9 12.0 3.4 43 5.8 NE 13 13 7 7 1021.7 1021.1 0.0
26/11:00pm 16.0 12.3 2.1 39 6.3 NNE 11 13 6 7 1022.0 1021.4 0.0
26/10:30pm 19.6 15.7 3.3 34 7.8 NNE 13 15 7 8 1022.0 1021.4 0.0
26/10:00pm 20.2 16.7 3.4 33 8.0 N 11 13 6 7 1022.0 1021.4 0.0
26/09:30pm 18.1 15.4 3.9 39 6.8 NE 7 11 4 6 1021.9 1021.3 0.0
26/09:00pm 18.9 16.0 2.7 34 7.6 NNE 7 9 4 5 1021.7 1021.1 0.0
26/08:30pm 19.3 15.6 2.2 32 8.0 NNE 11 13 6 7 1021.6 1021.0 0.0
26/08:00pm 19.6 16.0 2.9 33 7.9 NE 11 11 6 6 1021.8 1021.2 0.0
26/07:30pm 21.5 17.7 3.7 31 8.7 NE 13 15 7 8 1021.7 1021.1 0.0
26/07:00pm 22.2 18.3 3.3 29 9.2 NNE 13 15 7 8 1021.6 1021.0 0.0
26/06:30pm 23.2 19.3 3.2 27 9.7 NE 13 17 7 9 1021.4 1020.8 0.0
26/06:00pm 24.8 20.5 3.5 25 10.6 NNE 15 20 8 11 1021.3 1020.7 0.0
26/05:30pm 25.9 20.6 3.2 23 11.3 NE 20 28 11 15 1021.3 1020.7 0.0
26/05:00pm 26.5 21.2 3.1 22 11.6 NE 20 30 11 16 1021.3 1020.7 0.0
26/04:30pm 26.8 21.7 4.0 23 11.6 NE 20 28 11 15 1021.3 1020.7 0.0
26/04:00pm 27.3 22.3 4.4 23 11.7 NE 20 30 11 16 1021.2 1020.6 0.0
26/03:30pm 27.3 22.1 3.7 22 11.9 NE 20 28 11 15 1021.5 1020.9 0.0
26/03:00pm 26.8 22.0 4.6 24 11.4 NNE 19 30 10 16 1021.7 1021.1 0.0
26/02:30pm 26.8 22.8 5.1 25 11.2 NE 15 28 8 15 1022.1 1021.5 0.0
26/02:00pm 26.6 22.2 5.0 25 11.1 NNE 17 26 9 14 1022.5 1021.9 0.0
26/01:30pm 26.4 21.4 4.8 25 11.1 NNE 20 33 11 18 1023.1 1022.4 0.0
26/01:00pm 27.0 22.2 4.7 24 11.4 NE 19 30 10 16 1023.4 1022.7 0.0
26/12:30pm 26.0 21.1 5.0 26 10.8 NNE 20 32 11 17 1024.1 1023.5 0.0
26/12:00pm 25.2 20.2 3.8 25 10.7 N 19 28 10 15 1024.6 1024.0 0.0
26/11:30am 24.6 19.2 4.4 27 10.2 NNE 22 30 12 16 1025.2 1024.6 0.0
26/11:00am 24.8 19.0 4.5 27 10.2 NNE 24 32 13 17 1025.4 1024.8 0.0
26/10:30am 23.9 18.6 4.8 29 9.7 NNE 22 32 12 17 1025.7 1025.1 0.0
26/10:00am 23.2 18.1 4.2 29 9.4 NNE 20 28 11 15 1026.0 1025.4 0.0
26/09:30am 22.0 16.9 4.1 31 8.8 NNE 20 30 11 16 1026.2 1025.6 0.0
26/09:00am 20.8 15.8 4.8 35 7.9 NNE 20 26 11 14 1026.1 1025.5 0.0
26/08:30am 18.9 14.1 4.7 39 6.9 NE 19 20 10 11 1025.9 1025.3 0.0

Other Formats:

Comma delimited format used in spreadsheet applications
http://www.bom.gov.au/fwo/IDN60801/IDN60801.94691.axf

JavaScript Object Notation format (JSON) in row-major order
http://www.bom.gov.au/fwo/IDN60801/IDN60801.94691.json